createdAt,value
2018-04-18T00:00:39.031Z,59.60
2018-04-18T00:03:06.797Z,59.60
2018-04-18T00:05:34.554Z,59.70
2018-04-18T00:08:02.336Z,59.70
2018-04-18T00:10:29.323Z,59.60
2018-04-18T00:12:56.310Z,59.60
2018-04-18T00:15:24.071Z,59.70
2018-04-18T00:17:51.822Z,59.60
2018-04-18T00:20:18.809Z,59.60
2018-04-18T00:22:45.807Z,59.10
2018-04-18T00:25:12.795Z,59.60
2018-04-18T00:27:39.786Z,60.20
2018-04-18T00:30:06.775Z,59.60
2018-04-18T00:32:34.525Z,59.60
2018-04-18T00:35:02.286Z,59.60
2018-04-18T00:37:30.039Z,60.20
2018-04-18T00:39:57.035Z,59.60
2018-04-18T00:42:24.026Z,59.60
2018-04-18T00:44:51.014Z,60.20
2018-04-18T00:47:18.005Z,59.60
2018-04-18T00:49:45.046Z,59.60
2018-04-18T00:52:12.035Z,59.60
2018-04-18T00:54:39.799Z,59.60
2018-04-18T00:57:07.557Z,59.60
2018-04-18T00:59:35.333Z,59.60
2018-04-18T01:02:02.321Z,59.60
2018-04-18T01:04:29.305Z,59.60
2018-04-18T01:06:57.066Z,59.60
2018-04-18T01:09:24.049Z,59.60
2018-04-18T01:11:51.042Z,59.60
2018-04-18T01:14:18.030Z,59.60
2018-04-18T01:16:45.013Z,59.60
2018-04-18T01:19:11.997Z,59.60
2018-04-18T01:21:39.762Z,59.60
2018-04-18T01:24:07.526Z,59.60
2018-04-18T01:26:35.289Z,59.60
2018-04-18T01:29:03.047Z,59.60
2018-04-18T01:31:30.809Z,60.20
2018-04-18T01:33:58.561Z,59.60
2018-04-18T01:36:25.554Z,59.60
2018-04-18T01:38:52.545Z,59.50
2018-04-18T01:41:19.553Z,59.60
2018-04-18T01:43:46.549Z,59.60
2018-04-18T01:46:13.540Z,59.60
2018-04-18T01:48:40.529Z,59.60
2018-04-18T01:51:07.522Z,60.10
2018-04-18T01:53:34.513Z,59.50
2018-04-18T01:56:01.502Z,59.60
2018-04-18T01:58:29.254Z,59.60
2018-04-18T02:00:57.013Z,59.60
2018-04-18T02:03:24.010Z,59.60
2018-04-18T02:05:50.993Z,59.60
2018-04-18T02:08:17.988Z,59.50
2018-04-18T02:10:44.973Z,59.60
2018-04-18T02:13:11.956Z,59.60
2018-04-18T02:15:38.954Z,59.60
2018-04-18T02:18:05.944Z,59.60
2018-04-18T02:20:33.694Z,59.60
2018-04-18T02:23:01.475Z,59.60
2018-04-18T02:25:29.234Z,59.60
2018-04-18T02:27:57.009Z,59.60
2018-04-18T02:30:24.001Z,59.60
2018-04-18T02:32:50.986Z,59.60
2018-04-18T02:35:18.751Z,59.60
2018-04-18T02:37:46.510Z,59.60
2018-04-18T02:40:14.268Z,59.60
2018-04-18T02:42:42.022Z,59.60
2018-04-18T02:45:09.009Z,59.60
2018-04-18T02:47:36.084Z,59.60
2018-04-18T02:50:03.082Z,59.60
2018-04-18T02:52:30.837Z,59.70
2018-04-18T02:54:58.598Z,59.70
2018-04-18T02:57:26.355Z,59.70
2018-04-18T02:59:54.113Z,60.30
2018-04-18T03:02:21.961Z,59.70
2018-04-18T03:04:48.952Z,59.60
2018-04-18T03:07:15.967Z,59.70
2018-04-18T03:09:42.950Z,59.70
2018-04-18T03:12:09.933Z,59.70
2018-04-18T03:14:36.926Z,59.70
2018-04-18T03:17:04.678Z,59.70
2018-04-18T03:19:32.438Z,59.60
2018-04-18T03:21:59.426Z,59.50
2018-04-18T03:24:26.435Z,59.60
2018-04-18T03:26:53.409Z,59.60
2018-04-18T03:29:20.397Z,59.60
2018-04-18T03:31:47.450Z,59.60
2018-04-18T03:34:14.437Z,59.60
2018-04-18T03:36:41.430Z,59.50
2018-04-18T03:39:08.421Z,59.50
2018-04-18T03:41:36.250Z,59.60
2018-04-18T03:44:04.010Z,59.50
2018-04-18T03:46:30.997Z,59.70
2018-04-18T03:48:58.754Z,59.60
2018-04-18T03:51:26.505Z,59.70
2018-04-18T03:53:54.260Z,59.70
2018-04-18T03:56:21.252Z,59.60
2018-04-18T03:58:48.244Z,59.70
2018-04-18T04:01:15.230Z,59.60
2018-04-18T04:03:42.238Z,59.70
2018-04-18T04:06:09.236Z,59.60
2018-04-18T04:08:36.219Z,59.60
2018-04-18T04:11:03.206Z,59.60
2018-04-18T04:13:30.204Z,59.60
2018-04-18T04:15:57.192Z,59.60
2018-04-18T04:18:30.992Z,59.60
2018-04-18T04:21:04.736Z,59.60
2018-04-18T04:23:37.767Z,59.60
2018-04-18T04:26:04.737Z,59.60
2018-04-18T04:28:31.725Z,59.60
2018-04-18T04:30:58.805Z,59.60
2018-04-18T04:33:25.790Z,59.60
2018-04-18T04:35:52.770Z,59.60
2018-04-18T04:38:19.753Z,59.60
2018-04-18T04:40:47.512Z,59.60
2018-04-18T04:43:15.282Z,59.60
2018-04-18T04:45:43.055Z,59.60
2018-04-18T04:48:10.864Z,59.60
2018-04-18T04:50:37.870Z,59.50
2018-04-18T04:53:05.618Z,59.60
2018-04-18T04:55:33.374Z,59.50
2018-04-18T04:58:00.388Z,59.50
2018-04-18T05:00:27.418Z,59.60
2018-04-18T05:02:54.401Z,59.50
2018-04-18T05:05:21.433Z,59.90
2018-04-18T05:07:48.430Z,59.90
2018-04-18T05:10:15.623Z,59.20
2018-04-18T05:12:42.617Z,59.10
2018-04-18T05:15:10.361Z,58.60
2018-04-18T05:17:37.349Z,58.60
2018-04-18T05:20:04.337Z,58.90
2018-04-18T05:22:31.321Z,58.40
2018-04-18T05:24:58.305Z,58.40
2018-04-18T05:27:25.301Z,58.60
2018-04-18T05:29:53.052Z,58.80
2018-04-18T05:32:20.054Z,58.80
2018-04-18T05:34:47.042Z,58.90
2018-04-18T05:37:14.045Z,58.90
2018-04-18T05:39:41.029Z,58.90
2018-04-18T05:42:08.025Z,59.00
2018-04-18T05:44:35.010Z,59.10
2018-04-18T05:47:02.003Z,59.10
2018-04-18T05:49:28.985Z,59.20
2018-04-18T05:51:55.973Z,59.20
2018-04-18T05:54:23.726Z,59.20
2018-04-18T05:56:50.718Z,59.20
2018-04-18T05:59:17.710Z,59.20
2018-04-18T06:01:44.714Z,59.30
2018-04-18T06:04:11.701Z,59.30
2018-04-18T06:06:38.685Z,59.40
2018-04-18T06:09:05.669Z,59.40
2018-04-18T06:11:32.666Z,59.40
2018-04-18T06:14:00.417Z,59.40
2018-04-18T06:16:28.172Z,59.40
2018-04-18T06:18:55.161Z,59.40
2018-04-18T06:21:22.148Z,59.40
2018-04-18T06:23:49.137Z,59.40
2018-04-18T06:26:16.122Z,59.40
2018-04-18T06:28:43.118Z,59.40
2018-04-18T06:31:10.879Z,59.40
2018-04-18T06:33:38.685Z,59.50
2018-04-18T06:36:06.390Z,59.50
2018-04-18T06:38:33.400Z,59.40
2018-04-18T06:41:00.365Z,59.90
2018-04-18T06:43:27.353Z,59.40
2018-04-18T06:45:54.364Z,59.50
2018-04-18T06:48:21.345Z,59.50
2018-04-18T06:50:48.329Z,59.40
2018-04-18T06:53:15.318Z,59.40
2018-04-18T06:55:43.065Z,59.40
2018-04-18T06:58:10.059Z,59.40
2018-04-18T07:00:37.041Z,59.40
2018-04-18T07:03:04.026Z,59.40
2018-04-18T07:05:31.787Z,60.00
2018-04-18T07:07:59.541Z,59.40
2018-04-18T07:10:27.302Z,59.40
2018-04-18T07:12:55.054Z,58.90
2018-04-18T07:15:22.045Z,59.40
2018-04-18T07:17:49.046Z,59.40
2018-04-18T07:20:16.027Z,59.30
2018-04-18T07:22:43.013Z,59.40
2018-04-18T07:25:09.997Z,59.30
2018-04-18T07:27:37.783Z,59.40
2018-04-18T07:30:05.518Z,59.40
2018-04-18T07:32:32.501Z,59.30
2018-04-18T07:34:59.502Z,59.70
2018-04-18T07:37:26.505Z,59.40
2018-04-18T07:39:53.490Z,59.30
2018-04-18T07:42:20.486Z,59.30
2018-04-18T07:44:47.481Z,59.30
2018-04-18T07:47:14.469Z,59.30
2018-04-18T07:49:41.469Z,59.30
2018-04-18T07:52:08.449Z,59.30
2018-04-18T07:54:35.444Z,59.20
2018-04-18T07:57:02.422Z,59.20
2018-04-18T07:59:30.178Z,59.20
2018-04-18T08:01:57.215Z,59.10
2018-04-18T08:04:24.157Z,59.10
2018-04-18T08:06:51.142Z,59.10
2018-04-18T08:09:18.125Z,59.70
2018-04-18T08:11:45.119Z,59.10
2018-04-18T08:14:12.869Z,59.10
2018-04-18T08:16:39.857Z,59.10
2018-04-18T08:19:06.867Z,59.10
2018-04-18T08:21:33.860Z,59.10
2018-04-18T08:24:00.841Z,59.00
2018-04-18T08:26:27.830Z,58.90
2018-04-18T08:28:54.818Z,59.00
2018-04-18T08:31:21.806Z,58.90
2018-04-18T08:33:49.558Z,58.90
2018-04-18T08:36:17.310Z,58.90
2018-04-18T08:38:44.302Z,58.90
2018-04-18T08:41:11.288Z,58.90
2018-04-18T08:43:38.272Z,59.00
2018-04-18T08:46:06.038Z,59.00
2018-04-18T08:48:33.789Z,59.00
2018-04-18T08:51:01.550Z,59.00
2018-04-18T08:53:29.304Z,59.10
2018-04-18T08:55:56.293Z,59.10
2018-04-18T08:58:23.289Z,59.70
2018-04-18T09:00:50.288Z,59.10
2018-04-18T09:03:17.261Z,59.10
2018-04-18T09:05:44.247Z,59.10
2018-04-18T09:08:12.004Z,59.10
2018-04-18T09:10:39.760Z,59.20
2018-04-18T09:13:06.746Z,59.00
2018-04-18T09:15:33.737Z,59.20
2018-04-18T09:18:00.729Z,59.20
2018-04-18T09:20:27.712Z,59.20
2018-04-18T09:22:54.702Z,59.20
2018-04-18T09:25:22.458Z,59.20
2018-04-18T09:27:50.219Z,59.30
2018-04-18T09:30:17.200Z,59.20
2018-04-18T09:32:44.198Z,59.20
2018-04-18T09:35:11.183Z,59.20
2018-04-18T09:37:38.169Z,59.20
2018-04-18T09:40:05.156Z,59.20
2018-04-18T09:42:32.909Z,59.30
2018-04-18T09:45:00.662Z,59.30
2018-04-18T09:47:27.661Z,59.30
2018-04-18T09:49:54.657Z,59.20
2018-04-18T09:52:21.653Z,59.30
2018-04-18T09:54:48.640Z,59.70
2018-04-18T09:57:15.642Z,59.20
2018-04-18T09:59:42.633Z,59.20
2018-04-18T10:02:15.361Z,59.20
2018-04-18T10:04:44.201Z,59.20
2018-04-18T10:07:11.197Z,59.20
2018-04-18T10:09:38.181Z,59.20
2018-04-18T10:12:05.181Z,59.20
2018-04-18T10:14:32.165Z,59.20
2018-04-18T10:16:59.171Z,59.20
2018-04-18T10:19:26.150Z,59.20
2018-04-18T10:21:53.145Z,59.20
2018-04-18T10:24:20.901Z,59.20
2018-04-18T10:26:48.661Z,59.20
2018-04-18T10:29:16.419Z,59.20
2018-04-18T10:31:43.426Z,59.20
2018-04-18T10:34:10.408Z,59.00
2018-04-18T10:36:37.404Z,59.20
2018-04-18T10:39:04.393Z,58.80
2018-04-18T10:41:31.378Z,59.20
2018-04-18T10:43:58.368Z,59.20
2018-04-18T10:46:25.355Z,59.20
2018-04-18T10:48:53.119Z,59.20
2018-04-18T10:51:20.860Z,59.20
2018-04-18T10:53:47.864Z,59.20
2018-04-18T10:56:14.846Z,59.30
2018-04-18T10:58:41.834Z,59.10
2018-04-18T11:01:08.833Z,59.10
2018-04-18T11:03:35.817Z,59.10
2018-04-18T11:06:02.813Z,59.10
2018-04-18T11:08:29.794Z,59.10
2018-04-18T11:10:57.545Z,59.10
2018-04-18T11:13:24.533Z,59.00
2018-04-18T11:15:51.522Z,59.70
2018-04-18T11:18:18.502Z,59.00
2018-04-18T11:20:46.251Z,59.10
2018-04-18T11:23:14.018Z,59.00
2018-04-18T11:25:40.989Z,59.00
2018-04-18T11:28:07.985Z,58.90
2018-04-18T11:30:34.974Z,59.00
2018-04-18T11:33:01.978Z,58.90
2018-04-18T11:35:28.965Z,58.90
2018-04-18T11:37:55.965Z,58.90
2018-04-18T11:40:22.950Z,58.90
2018-04-18T11:42:50.710Z,58.80
2018-04-18T11:45:18.457Z,58.90
2018-04-18T11:47:45.453Z,58.80
2018-04-18T11:50:12.445Z,58.80
2018-04-18T11:52:39.442Z,58.80
2018-04-18T11:55:06.430Z,58.60
2018-04-18T11:57:33.480Z,58.80
2018-04-18T12:00:00.409Z,58.80
2018-04-18T12:02:27.414Z,58.80
2018-04-18T12:04:54.405Z,58.80
2018-04-18T12:07:21.390Z,58.80
2018-04-18T12:09:48.381Z,58.80
2018-04-18T12:12:15.371Z,58.70
2018-04-18T12:14:43.121Z,58.80
2018-04-18T12:17:10.109Z,58.70
2018-04-18T12:19:37.089Z,58.70
2018-04-18T12:22:04.075Z,58.70
2018-04-18T12:24:31.823Z,58.70
2018-04-18T12:26:59.577Z,59.00
2018-04-18T12:29:26.566Z,58.70
2018-04-18T12:31:53.545Z,58.70
2018-04-18T12:34:20.533Z,58.60
2018-04-18T12:36:48.289Z,58.70
2018-04-18T12:39:16.036Z,58.70
2018-04-18T12:41:43.032Z,58.60
2018-04-18T12:44:10.012Z,58.70
2018-04-18T12:46:36.992Z,58.50
2018-04-18T12:49:04.749Z,58.60
2018-04-18T12:51:32.525Z,58.60
2018-04-18T12:54:00.276Z,58.60
2018-04-18T12:56:28.029Z,58.50
2018-04-18T12:58:55.017Z,58.50
2018-04-18T13:01:22.027Z,58.50
2018-04-18T13:03:49.785Z,58.60
2018-04-18T13:06:16.770Z,58.40
2018-04-18T13:08:43.754Z,58.50
2018-04-18T13:11:10.749Z,58.40
2018-04-18T13:13:38.507Z,58.40
2018-04-18T13:16:06.258Z,58.40
2018-04-18T13:18:34.021Z,58.40
2018-04-18T13:21:01.777Z,58.40
2018-04-18T13:23:28.769Z,58.30
2018-04-18T13:25:55.762Z,58.40
2018-04-18T13:28:22.758Z,58.40
2018-04-18T13:30:49.744Z,58.30
2018-04-18T13:33:16.741Z,58.30
2018-04-18T13:35:43.848Z,58.30
2018-04-18T13:38:10.860Z,58.30
2018-04-18T13:40:37.922Z,58.30
2018-04-18T13:43:04.905Z,58.40
2018-04-18T13:45:32.667Z,58.40
2018-04-18T13:48:00.451Z,58.40
2018-04-18T13:50:28.188Z,58.80
2018-04-18T13:52:55.942Z,58.30
2018-04-18T13:55:22.930Z,58.30
2018-04-18T13:57:49.937Z,56.10
2018-04-18T14:00:16.926Z,56.40
2018-04-18T14:02:43.909Z,57.10
2018-04-18T14:05:10.899Z,57.10
2018-04-18T14:07:37.891Z,57.30
2018-04-18T14:10:04.869Z,57.30
2018-04-18T14:12:32.616Z,56.00
2018-04-18T14:14:59.597Z,55.30
2018-04-18T14:17:26.617Z,54.20
2018-04-18T14:19:53.598Z,53.00
2018-04-18T14:22:20.595Z,53.40
2018-04-18T14:24:47.586Z,54.50
2018-04-18T14:27:15.617Z,55.10
2018-04-18T14:29:42.598Z,55.40
2018-04-18T14:32:09.592Z,55.50
2018-04-18T14:34:36.576Z,55.80
2018-04-18T14:37:05.257Z,54.20
2018-04-18T14:39:33.111Z,54.60
2018-04-18T14:42:00.628Z,54.60
2018-04-18T14:44:28.347Z,55.10
2018-04-18T14:46:56.104Z,55.70
2018-04-18T14:49:23.910Z,56.10
2018-04-18T14:51:50.931Z,56.10
2018-04-18T14:54:18.678Z,56.50
2018-04-18T14:56:46.442Z,56.50
2018-04-18T14:59:14.194Z,56.50
2018-04-18T15:01:41.183Z,56.40
2018-04-18T15:04:08.171Z,56.40
2018-04-18T15:06:35.157Z,56.40
2018-04-18T15:09:02.149Z,56.40
2018-04-18T15:11:29.143Z,57.10
2018-04-18T15:13:56.889Z,56.60
2018-04-18T15:16:24.664Z,56.30
2018-04-18T15:18:52.417Z,56.50
2018-04-18T15:21:20.181Z,56.60
2018-04-18T15:23:47.957Z,56.60
2018-04-18T15:26:15.724Z,56.60
2018-04-18T15:28:43.516Z,56.60
2018-04-18T15:31:10.496Z,56.60
2018-04-18T15:33:37.485Z,56.60
2018-04-18T15:36:04.474Z,56.60
2018-04-18T15:38:31.461Z,56.70
2018-04-18T15:40:59.223Z,56.70
2018-04-18T15:43:26.981Z,56.80
2018-04-18T15:45:54.041Z,56.80
2018-04-18T15:48:21.799Z,56.90
2018-04-18T15:50:49.557Z,56.90
2018-04-18T15:53:16.541Z,56.80
2018-04-18T15:55:43.533Z,57.20
2018-04-18T15:58:10.522Z,56.90
2018-04-18T16:00:37.513Z,56.90
2018-04-18T16:03:04.499Z,57.00
2018-04-18T16:05:32.249Z,57.00
2018-04-18T16:08:00.008Z,57.60
2018-04-18T16:10:27.131Z,57.00
2018-04-18T16:12:54.113Z,57.00
2018-04-18T16:15:21.878Z,57.10
2018-04-18T16:17:49.628Z,57.10
2018-04-18T16:20:16.626Z,57.10
2018-04-18T16:22:43.613Z,57.10
2018-04-18T16:25:11.566Z,57.10
2018-04-18T16:32:21.143Z,57.00
2018-04-18T16:34:48.147Z,56.90
2018-04-18T16:37:15.143Z,56.40
2018-04-18T16:39:42.174Z,56.90
2018-04-18T16:42:09.267Z,57.00
2018-04-18T16:44:36.299Z,57.00
2018-04-18T16:47:03.267Z,57.00
2018-04-18T16:49:30.254Z,56.90
2018-04-18T16:51:57.329Z,56.90
2018-04-18T16:54:25.093Z,57.00
2018-04-18T16:56:52.082Z,56.90
2018-04-18T16:59:19.099Z,56.50
2018-04-18T17:01:46.058Z,56.80
2018-04-18T17:04:13.063Z,56.90
2018-04-18T17:06:40.142Z,56.60
2018-04-18T17:09:07.074Z,56.60
2018-04-18T17:11:34.820Z,57.30
2018-04-18T17:14:01.824Z,56.80
2018-04-18T17:16:28.819Z,57.00
2018-04-18T17:18:55.834Z,56.90
2018-04-18T17:21:22.891Z,56.90
2018-04-18T17:23:49.857Z,56.90
2018-04-18T17:26:16.847Z,57.00
2018-04-18T17:28:44.866Z,57.20
2018-04-18T17:31:11.861Z,57.20
2018-04-18T17:33:38.845Z,57.10
2018-04-18T17:36:05.835Z,57.10
2018-04-18T17:38:32.821Z,57.10
2018-04-18T17:40:59.852Z,57.10
2018-04-18T17:43:27.585Z,57.20
2018-04-18T17:45:54.573Z,57.10
2018-04-18T17:48:21.557Z,57.20
2018-04-18T17:50:49.309Z,57.40
2018-04-18T17:53:16.313Z,57.20
2018-04-18T17:55:43.311Z,57.20
2018-04-18T17:58:10.299Z,57.20
2018-04-18T18:00:37.292Z,57.20
2018-04-18T18:03:04.290Z,57.30
2018-04-18T18:05:31.299Z,57.20
2018-04-18T18:07:59.118Z,57.20
2018-04-18T18:10:26.112Z,57.20
2018-04-18T18:12:53.871Z,57.20
2018-04-18T18:15:20.877Z,57.20
2018-04-18T18:17:47.867Z,57.90
2018-04-18T18:20:15.653Z,57.40
2018-04-18T18:22:42.653Z,57.30
2018-04-18T18:25:09.647Z,57.30
2018-04-18T18:27:36.638Z,57.40
2018-04-18T18:30:03.637Z,57.40
2018-04-18T18:32:30.631Z,57.40
2018-04-18T18:34:57.633Z,57.70
2018-04-18T18:37:24.618Z,57.70
2018-04-18T18:39:51.621Z,57.70
2018-04-18T18:42:18.625Z,57.70
2018-04-18T18:44:45.617Z,57.50
2018-04-18T18:47:12.625Z,57.50
2018-04-18T18:49:39.632Z,57.50
2018-04-18T18:52:06.628Z,57.50
2018-04-18T18:54:34.386Z,57.50
2018-04-18T18:57:02.198Z,57.50
2018-04-18T18:59:29.911Z,57.50
2018-04-18T19:01:57.681Z,57.50
2018-04-18T19:04:25.444Z,57.50
2018-04-18T19:06:52.443Z,57.50
2018-04-18T19:09:19.457Z,57.50
2018-04-18T19:11:46.445Z,57.50
2018-04-18T19:14:13.443Z,57.50
2018-04-18T19:16:40.438Z,57.50
2018-04-18T19:19:07.429Z,57.50
2018-04-18T19:21:34.435Z,57.50
2018-04-18T19:24:01.425Z,57.50
2018-04-18T19:26:28.418Z,57.60
2018-04-18T19:28:55.408Z,57.60
2018-04-18T19:31:23.178Z,57.60
2018-04-18T19:33:50.348Z,57.60
2018-04-18T19:36:17.480Z,57.60
2018-04-18T19:38:45.244Z,57.70
2018-04-18T19:41:12.935Z,57.60
2018-04-18T19:43:39.926Z,57.70
2018-04-18T19:46:07.923Z,57.70
2018-04-18T19:48:34.918Z,57.70
2018-04-18T19:51:01.934Z,57.70
2018-04-18T19:53:28.927Z,57.70
2018-04-18T19:55:55.925Z,57.70
2018-04-18T19:58:22.976Z,57.70
2018-04-18T20:00:49.976Z,57.70
2018-04-18T20:03:17.733Z,57.70
2018-04-18T20:05:45.499Z,57.70
2018-04-18T20:08:13.266Z,57.70
2018-04-18T20:10:41.038Z,57.70
2018-04-18T20:13:08.797Z,57.70
2018-04-18T20:15:36.555Z,57.80
2018-04-18T20:18:03.551Z,57.70
2018-04-18T20:20:30.555Z,57.80
2018-04-18T20:22:57.567Z,57.80
2018-04-18T20:25:24.567Z,57.80
2018-04-18T20:27:51.573Z,57.80
2018-04-18T20:30:18.573Z,57.70
2018-04-18T20:32:45.575Z,57.80
2018-04-18T20:35:12.572Z,57.70
2018-04-18T20:37:39.757Z,57.80
2018-04-18T20:40:07.534Z,57.80
2018-04-18T20:42:34.536Z,57.80
2018-04-18T20:45:01.531Z,57.90
2018-04-18T20:47:28.527Z,57.80
2018-04-18T20:49:55.527Z,57.90
2018-04-18T20:52:23.287Z,57.80
2018-04-18T20:54:51.053Z,57.90
2018-04-18T20:57:18.812Z,57.80
2018-04-18T20:59:46.563Z,57.90
2018-04-18T21:02:15.061Z,57.80
2018-04-18T21:04:42.810Z,57.80
2018-04-18T21:07:10.570Z,57.80
2018-04-18T21:09:37.599Z,57.80
2018-04-18T21:12:04.578Z,57.90
2018-04-18T21:14:32.330Z,57.90
2018-04-18T21:17:00.086Z,58.00
2018-04-18T21:19:27.078Z,57.90
2018-04-18T21:21:54.062Z,58.20
2018-04-18T21:24:21.210Z,57.90
2018-04-18T21:26:48.195Z,57.90
2018-04-18T21:29:15.186Z,58.00
2018-04-18T21:31:42.180Z,58.00
2018-04-18T21:34:09.930Z,58.00
2018-04-18T21:36:36.936Z,58.00
2018-04-18T21:39:03.921Z,58.00
2018-04-18T21:41:30.926Z,58.00
2018-04-18T21:43:57.919Z,58.00
2018-04-18T21:46:25.691Z,58.00
2018-04-18T21:48:53.446Z,58.00
2018-04-18T21:51:21.199Z,58.10
2018-04-18T21:53:48.191Z,58.00
2018-04-18T21:56:15.178Z,58.00
2018-04-18T21:58:42.172Z,58.00
2018-04-18T22:01:09.163Z,58.00
2018-04-18T22:03:36.155Z,58.00
2018-04-18T22:06:03.133Z,58.10
2018-04-18T22:08:30.122Z,58.10
2018-04-18T22:10:57.110Z,58.10
2018-04-18T22:13:24.105Z,58.10
2018-04-18T22:15:51.101Z,58.10
2018-04-18T22:18:18.308Z,58.10
2018-04-18T22:20:45.299Z,58.10
2018-04-18T22:23:12.295Z,58.10
2018-04-18T22:25:39.290Z,58.10
2018-04-18T22:28:06.287Z,58.10
2018-04-18T22:30:33.282Z,58.10
2018-04-18T22:33:00.270Z,58.20
2018-04-18T22:35:27.285Z,58.10
2018-04-18T22:37:54.266Z,58.20
2018-04-18T22:40:21.267Z,58.20
2018-04-18T22:42:48.259Z,58.20
2018-04-18T22:45:16.026Z,58.20
2018-04-18T22:47:43.026Z,58.20
2018-04-18T22:50:10.014Z,58.20
2018-04-18T22:52:37.783Z,58.20
2018-04-18T22:55:04.778Z,58.20
2018-04-18T22:57:31.782Z,58.30
2018-04-18T22:59:58.778Z,58.20
2018-04-18T23:02:25.787Z,58.30
2018-04-18T23:04:53.529Z,58.30
2018-04-18T23:07:20.525Z,58.30
2018-04-18T23:09:47.511Z,58.20
2018-04-18T23:12:16.014Z,58.20
2018-04-18T23:14:43.769Z,58.30
2018-04-18T23:17:10.772Z,58.20
2018-04-18T23:19:37.762Z,58.30
2018-04-18T23:22:05.522Z,58.30
2018-04-18T23:24:33.282Z,58.20
2018-04-18T23:27:00.274Z,58.20
2018-04-18T23:29:27.262Z,58.30
2018-04-18T23:31:55.025Z,58.30
2018-04-18T23:34:23.522Z,58.20
2018-04-18T23:36:51.286Z,58.20
2018-04-18T23:39:19.037Z,58.40
2018-04-18T23:41:46.037Z,58.30
2018-04-18T23:44:13.027Z,58.30
2018-04-18T23:46:40.025Z,58.40
2018-04-18T23:49:07.035Z,58.30
2018-04-18T23:51:34.034Z,58.30
2018-04-18T23:54:01.022Z,58.30
2018-04-18T23:56:28.802Z,58.40
2018-04-18T23:58:55.791Z,58.30
